»·PEaware :: N271SD KCOS-KAPA

N271SD :: KCOS-KAPA

FLIGHT INFORMATION

Flight Status: Arrived
Operator: Privately registered:
United States
More flights under this callsign
Pilot: Stephen D. (29498)
Aircraft: PILATUS PC-12 EAGLE
(PC12)
More flights by this aircraft type
Origin: KCOS City Of Colorado Springs Mun
United States
Destination: KAPA Centennial
United States
More flights between these airports :: More routes between these airports
Route: +XBGIN FQF
File this flight plan on PilotEdge
Remarks:
Altitude:
(Current/Filed)
11,000ft
Speed:
(Current/Filed)
200kts
Departed: 22-May-20 07:41 PM
Arrived: 22-May-20 08:08 PM
Distance/Time
Traveled:
47nm/0:27
Distance/Time
To Go:
Arrived

Flight Plot

Page will automatically refresh every two minutes.


Map Options




Map Legend


Flown Route
Filed Route
Departure Airport
Arrival Airport
Navaid (VOR, NDB)
Fix

Horizontal Profiles

Position Reports

Time Latitude Longitude Heading Altitude Ground
Speed
22-May-20 19:18 38.810304 -104.720296 91 6100ft 0kts
22-May-20 19:19 38.810304 -104.720296 91 6100ft 0kts
22-May-20 19:20 38.810304 -104.720296 91 6100ft 0kts
22-May-20 19:21 38.810304 -104.720296 91 6100ft 0kts
22-May-20 19:22 38.810304 -104.720296 91 6100ft 0kts
22-May-20 19:23 38.810304 -104.720296 91 6100ft 0kts
22-May-20 19:24 38.810304 -104.720296 91 6100ft 0kts
22-May-20 19:25 38.810304 -104.720295 91 6100ft 0kts
22-May-20 19:26 38.810303 -104.720098 89 6100ft 0kts
22-May-20 19:27 38.810307 -104.719939 87 6101ft 0kts
22-May-20 19:28 38.810313 -104.719789 85 6101ft 0kts
22-May-20 19:29 38.810314 -104.719779 85 6101ft 0kts
22-May-20 19:30 38.810314 -104.719779 85 6101ft 0kts
22-May-20 19:31 38.810314 -104.719779 85 6101ft 0kts
22-May-20 19:32 38.810314 -104.719779 85 6101ft 0kts
22-May-20 19:33 38.811931 -104.719531 359 6109ft 16kts
22-May-20 19:34 38.815612 -104.717303 2 6127ft 32kts
22-May-20 19:35 38.821497 -104.717860 1 6152ft 0kts
22-May-20 19:35 38.821497 -104.717860 1 6152ft 0kts
22-May-20 19:37 38.821497 -104.717860 0 6152ft 0kts
22-May-20 19:37 38.821542 -104.717858 2 6152ft 4kts
22-May-20 19:38 38.822198 -104.717228 62 6158ft 0kts
22-May-20 19:39 38.822198 -104.717228 62 6158ft 0kts
22-May-20 19:40 38.817606 -104.715947 180 6139ft 101kts
22-May-20 19:41 38.780365 -104.716413 177 7638ft 146kts
22-May-20 19:42 38.739498 -104.715778 176 9451ft 149kts
22-May-20 19:43 38.708774 -104.683203 121 11108ft 164kts
22-May-20 19:44 38.724613 -104.628625 5 11263ft 241kts
22-May-20 19:45 38.794781 -104.627303 359 11038ft 257kts
22-May-20 19:46 38.861604 -104.629188 359 11058ft 231kts
22-May-20 19:47 38.924566 -104.631191 359 11056ft 224kts
22-May-20 19:48 38.985891 -104.642947 338 11048ft 225kts
22-May-20 19:49 39.047888 -104.673661 334 10867ft 252kts
22-May-20 19:50 39.115361 -104.712832 334 10586ft 268kts
22-May-20 19:51 39.181521 -104.751439 334 10466ft 253kts
22-May-20 19:52 39.242808 -104.787162 334 10507ft 232kts
22-May-20 19:53 39.305785 -104.801617 355 10315ft 231kts
22-May-20 19:54 39.370191 -104.805999 359 10143ft 231kts
22-May-20 19:55 39.431667 -104.805029 1 10476ft 208kts
22-May-20 19:56 39.486016 -104.803561 1 10874ft 194kts
22-May-20 19:57 39.540537 -104.802011 1 11011ft 198kts
22-May-20 19:58 39.596336 -104.800556 1 11041ft 204kts
22-May-20 19:59 39.654762 -104.798930 1 10117ft 213kts
22-May-20 20:00 39.704017 -104.797646 1 9380ft 173kts
22-May-20 20:01 39.748756 -104.803652 301 8392ft 144kts
22-May-20 20:02 39.734353 -104.835824 212 7872ft 132kts
22-May-20 20:03 39.701770 -104.859378 185 7857ft 139kts
22-May-20 20:04 39.662716 -104.859687 177 7863ft 141kts
22-May-20 20:05 39.624321 -104.858776 176 7308ft 134kts
22-May-20 20:06 39.587674 -104.854747 175 6165ft 123kts
22-May-20 20:07 39.569485 -104.852812 88 5890ft 8kts
22-May-20 20:08 39.569487 -104.852774 86 5890ft 0kts
22-May-20 20:09 39.569487 -104.852773 87 5890ft 0kts
22-May-20 20:10 39.569487 -104.852773 87 5890ft 0kts
22-May-20 20:11 39.569487 -104.852773 87 5890ft 0kts
22-May-20 20:12 39.570014 -104.852241 358 5890ft 11kts
22-May-20 20:13 39.572278 -104.852308 14 5890ft 6kts

Navigation Log

Ident Type
Flight plan parsing failed, navigation log unavailable